Time;durP1;ratioP1;P1;durP2;ratioP2;P2;SDS_P1;SDS_P2;PMS_P1;PMS_P2;Temp;Humidity;BMP_temperature;BMP_pressure;BME280_temperature;BME280_humidity;BME280_pressure;Samples;Min_cycle;Max_cycle;Signal;HPM_P1;HPM_P2
2021/04/18 00:01:57;;;;;;;9.65;5.57;;;6.40;80.20;;;;;;6272961;28;20037;-77
2021/04/18 00:04:59;;;;;;;5.40;4.78;;;6.40;80.70;;;;;;6258793;28;20073;-76
2021/04/18 00:08:02;;;;;;;6.32;4.53;;;6.40;80.80;;;;;;6249840;28;20069;-77
2021/04/18 00:11:03;;;;;;;7.47;5.47;;;6.40;80.80;;;;;;6251070;28;20137;-77
2021/04/18 00:14:05;;;;;;;8.15;5.35;;;6.50;80.90;;;;;;6249110;28;20075;-77
2021/04/18 00:17:08;;;;;;;5.18;4.53;;;6.50;80.80;;;;;;6248116;28;20049;-77
2021/04/18 00:20:11;;;;;;;5.88;4.63;;;6.50;81.00;;;;;;6246935;28;20049;-76
2021/04/18 00:23:12;;;;;;;5.72;5.13;;;6.50;81.20;;;;;;6246792;28;20456;-77
2021/04/18 00:26:14;;;;;;;5.75;4.05;;;6.50;81.20;;;;;;6247879;28;20053;-78
2021/04/18 00:29:15;;;;;;;4.97;4.32;;;6.50;81.20;;;;;;6247634;28;20072;-77
2021/04/18 00:32:17;;;;;;;5.15;4.00;;;6.60;81.30;;;;;;6247079;28;20388;-76
2021/04/18 00:35:20;;;;;;;6.88;4.25;;;6.60;81.30;;;;;;6247384;28;20515;-77
2021/04/18 00:38:22;;;;;;;7.25;4.72;;;6.60;81.50;;;;;;6247773;28;20049;-77
2021/04/18 00:41:24;;;;;;;8.32;4.32;;;6.50;81.40;;;;;;6247284;28;20136;-77
2021/04/18 00:44:25;;;;;;;6.53;5.53;;;6.50;81.60;;;;;;6247707;28;20092;-77
2021/04/18 00:47:31;;;;;;;7.03;4.47;;;6.50;81.70;;;;;;6246668;28;20045;-77
2021/04/18 00:50:34;;;;;;;5.38;4.43;;;6.50;82.10;;;;;;6247272;28;20971;-77
2021/04/18 00:53:36;;;;;;;5.85;5.18;;;6.50;82.70;;;;;;6247174;28;20075;-77
2021/04/18 00:56:37;;;;;;;6.13;5.07;;;6.50;82.30;;;;;;6246237;28;20507;-77
2021/04/18 00:59:39;;;;;;;6.25;4.65;;;6.60;82.30;;;;;;6244670;28;20187;-77
2021/04/18 01:02:41;;;;;;;8.93;5.00;;;6.50;82.20;;;;;;6253442;28;20049;-77
2021/04/18 01:05:42;;;;;;;7.35;5.13;;;6.60;82.00;;;;;;6246002;28;20076;-77
2021/04/18 01:08:43;;;;;;;8.20;5.57;;;6.60;82.10;;;;;;6246831;28;20042;-77
2021/04/18 01:11:45;;;;;;;6.55;4.50;;;6.60;82.10;;;;;;6248372;28;20124;-77
2021/04/18 01:14:46;;;;;;;7.35;5.57;;;6.60;82.10;;;;;;6248254;28;20045;-78
2021/04/18 01:17:49;;;;;;;6.40;5.47;;;6.60;82.20;;;;;;6246755;28;20207;-77
2021/04/18 01:21:03;;;;;;;7.95;5.30;;;6.50;82.40;;;;;;6248372;28;20586;-78
2021/04/18 01:24:05;;;;;;;5.75;5.18;;;6.60;82.50;;;;;;6248503;28;20073;-78
2021/04/18 01:27:07;;;;;;;5.82;4.88;;;6.60;82.50;;;;;;6247978;28;20049;-79
2021/04/18 01:30:12;;;;;;;10.32;6.22;;;6.60;82.40;;;;;;6246871;28;20088;-78
2021/04/18 01:33:13;;;;;;;7.82;5.00;;;6.60;82.40;;;;;;6244549;28;20392;-78
2021/04/18 01:36:15;;;;;;;6.47;5.07;;;6.70;82.40;;;;;;6246867;28;20099;-77
2021/04/18 01:39:17;;;;;;;7.53;6.63;;;6.60;82.50;;;;;;6248884;28;20046;-78
2021/04/18 01:42:19;;;;;;;8.50;5.07;;;6.60;82.60;;;;;;6247241;28;20501;-78
2021/04/18 01:45:23;;;;;;;6.20;5.60;;;6.60;82.60;;;;;;6247483;28;20046;-78
2021/04/18 01:48:24;;;;;;;6.75;5.13;;;6.60;82.80;;;;;;6248204;28;20392;-78
2021/04/18 01:51:26;;;;;;;7.00;4.68;;;6.60;82.90;;;;;;6249254;28;20089;-78
2021/04/18 01:54:28;;;;;;;6.55;4.50;;;6.60;83.20;;;;;;6252961;28;20061;-78
2021/04/18 01:57:29;;;;;;;9.70;4.82;;;6.60;83.30;;;;;;6253454;28;20126;-78
2021/04/18 02:00:30;;;;;;;6.10;4.10;;;6.60;83.50;;;;;;6254906;28;20072;-78
2021/04/18 02:03:32;;;;;;;7.05;5.00;;;6.60;83.60;;;;;;6251730;28;20084;-78
2021/04/18 02:06:34;;;;;;;8.75;5.88;;;6.50;83.60;;;;;;6253190;28;20081;-78
2021/04/18 02:09:36;;;;;;;7.97;5.78;;;6.60;83.60;;;;;;6253797;28;20048;-78
2021/04/18 02:12:38;;;;;;;6.40;5.63;;;6.60;83.60;;;;;;6253155;28;20069;-78
2021/04/18 02:15:39;;;;;;;8.18;6.70;;;6.70;83.80;;;;;;6251770;28;20057;-78
2021/04/18 02:18:40;;;;;;;8.13;5.43;;;6.70;83.80;;;;;;6252597;28;20462;-79
2021/04/18 02:21:42;;;;;;;10.18;7.18;;;6.70;83.80;;;;;;6258618;28;20132;-79
2021/04/18 02:24:44;;;;;;;6.15;5.32;;;6.70;83.80;;;;;;6258639;28;20539;-79
2021/04/18 02:27:45;;;;;;;8.85;5.70;;;6.80;83.80;;;;;;6258835;28;20048;-79
2021/04/18 02:30:47;;;;;;;9.52;6.45;;;6.80;83.70;;;;;;6254262;28;20049;-78
2021/04/18 02:33:48;;;;;;;9.10;6.70;;;6.80;83.80;;;;;;6258870;28;20053;-78
2021/04/18 02:36:50;;;;;;;11.45;7.00;;;6.80;83.80;;;;;;6265139;28;20064;-78
2021/04/18 02:39:51;;;;;;;9.00;7.35;;;6.80;83.80;;;;;;6265534;28;20507;-77
2021/04/18 02:42:53;;;;;;;8.95;7.63;;;6.80;83.80;;;;;;6263261;28;20113;-78
2021/04/18 02:45:54;;;;;;;16.15;7.55;;;6.80;83.70;;;;;;6261250;28;20128;-78
2021/04/18 02:48:55;;;;;;;9.38;6.07;;;6.80;83.70;;;;;;6265095;28;20049;-77
2021/04/18 02:51:58;;;;;;;11.45;6.90;;;6.80;83.70;;;;;;6257773;28;20442;-77
2021/04/18 02:55:00;;;;;;;8.35;7.43;;;6.80;83.80;;;;;;6265541;28;20488;-79
2021/04/18 02:58:01;;;;;;;6.68;6.05;;;6.80;84.10;;;;;;6264491;28;20045;-78
2021/04/18 03:01:03;;;;;;;8.75;5.82;;;6.80;83.90;;;;;;6255758;28;20096;-78
2021/04/18 03:04:04;;;;;;;7.75;5.80;;;6.80;84.10;;;;;;6257424;28;20067;-77
2021/04/18 03:07:07;;;;;;;6.97;5.60;;;6.80;84.10;;;;;;6256155;28;20139;-78
2021/04/18 03:10:10;;;;;;;8.77;6.10;;;6.70;84.40;;;;;;6254195;28;20076;-77
2021/04/18 03:13:11;;;;;;;6.78;6.07;;;6.70;84.80;;;;;;6253444;28;20137;-77
2021/04/18 03:16:13;;;;;;;10.35;5.68;;;6.70;85.00;;;;;;6258857;28;20530;-78
2021/04/18 03:19:14;;;;;;;9.90;6.00;;;6.70;85.00;;;;;;6261719;28;20060;-79
2021/04/18 03:22:16;;;;;;;6.78;5.65;;;6.70;85.40;;;;;;6264636;28;20065;-78
2021/04/18 03:25:18;;;;;;;7.65;4.43;;;6.70;85.60;;;;;;6263041;28;20052;-77
2021/04/18 03:28:19;;;;;;;7.35;5.80;;;6.70;85.60;;;;;;6261210;28;20061;-78
2021/04/18 03:31:21;;;;;;;7.88;6.30;;;6.70;85.60;;;;;;6262210;28;20053;-78
2021/04/18 03:34:22;;;;;;;10.68;6.20;;;6.70;85.80;;;;;;6263634;28;20049;-77
2021/04/18 03:37:24;;;;;;;6.35;5.75;;;6.70;85.80;;;;;;6267806;28;20457;-78
2021/04/18 03:40:25;;;;;;;7.32;5.65;;;6.80;85.90;;;;;;6266552;28;20077;-78
2021/04/18 03:43:27;;;;;;;12.32;5.60;;;6.70;86.00;;;;;;6260192;28;20077;-79
2021/04/18 03:46:28;;;;;;;6.65;5.10;;;6.70;86.20;;;;;;6262539;28;20057;-78
2021/04/18 03:49:29;;;;;;;12.90;5.40;;;6.70;86.70;;;;;;6262812;28;20064;-78
2021/04/18 03:52:32;;;;;;;5.97;5.10;;;6.70;86.70;;;;;;6265247;28;20049;-78
2021/04/18 03:55:33;;;;;;;8.43;6.38;;;6.70;86.80;;;;;;6260566;28;20115;-77
2021/04/18 03:58:35;;;;;;;8.00;6.63;;;6.60;86.80;;;;;;6260486;28;20499;-77
2021/04/18 04:01:36;;;;;;;9.85;5.68;;;6.60;86.90;;;;;;6255217;28;20072;-78
2021/04/18 04:04:38;;;;;;;8.65;6.93;;;6.50;87.00;;;;;;6254589;28;20137;-78
2021/04/18 04:07:40;;;;;;;12.02;7.15;;;6.50;87.10;;;;;;6253873;28;20042;-78
2021/04/18 04:10:41;;;;;;;10.73;6.47;;;6.60;87.10;;;;;;6254254;28;20045;-77
2021/04/18 04:13:42;;;;;;;13.45;7.93;;;6.60;87.20;;;;;;6249328;28;20140;-78
2021/04/18 04:16:44;;;;;;;10.52;8.00;;;6.60;87.00;;;;;;6245954;28;20064;-77
2021/04/18 04:19:45;;;;;;;6.95;6.32;;;6.60;87.20;;;;;;6250556;28;20137;-77
2021/04/18 04:22:47;;;;;;;10.77;6.70;;;6.60;87.20;;;;;;6249219;28;20137;-77
2021/04/18 04:25:48;;;;;;;8.15;7.35;;;6.60;87.20;;;;;;6247603;28;20570;-77
2021/04/18 04:28:50;;;;;;;8.18;6.38;;;6.70;87.10;;;;;;6247976;28;20073;-77
2021/04/18 04:31:51;;;;;;;9.23;7.18;;;6.70;87.30;;;;;;6249350;28;20128;-77
2021/04/18 04:34:52;;;;;;;10.02;8.05;;;6.60;87.30;;;;;;6223422;28;20057;-77
2021/04/18 04:37:55;;;;;;;7.88;6.78;;;6.70;87.50;;;;;;6223251;28;20129;-77
2021/04/18 04:40:56;;;;;;;9.65;6.93;;;6.70;87.40;;;;;;6225522;28;20076;-77
2021/04/18 04:43:57;;;;;;;7.68;6.72;;;6.70;87.40;;;;;;6225779;28;20088;-77
2021/04/18 04:46:59;;;;;;;8.35;6.57;;;6.60;87.50;;;;;;6223408;28;20054;-77
2021/04/18 04:50:00;;;;;;;8.00;6.38;;;6.60;87.80;;;;;;6223624;28;20597;-77
2021/04/18 04:53:02;;;;;;;7.50;6.63;;;6.60;88.20;;;;;;6225204;28;20519;-77
2021/04/18 04:56:04;;;;;;;8.25;7.15;;;6.60;88.50;;;;;;6224336;28;20129;-77
2021/04/18 04:59:06;;;;;;;8.82;6.47;;;6.60;88.60;;;;;;6223897;28;20099;-77
2021/04/18 05:02:07;;;;;;;9.02;7.32;;;6.60;88.80;;;;;;6223845;28;20077;-77
2021/04/18 05:05:10;;;;;;;7.55;6.70;;;6.60;88.90;;;;;;6225340;28;20420;-77
2021/04/18 05:08:12;;;;;;;11.90;6.63;;;6.60;88.90;;;;;;6223693;28;20137;-77
2021/04/18 05:11:13;;;;;;;11.15;7.25;;;6.60;89.00;;;;;;6227613;28;20085;-77
2021/04/18 05:14:15;;;;;;;8.85;7.28;;;6.60;88.90;;;;;;6223295;28;20068;-77
2021/04/18 05:17:16;;;;;;;8.35;7.03;;;6.70;89.00;;;;;;6222423;28;20042;-77
2021/04/18 05:20:19;;;;;;;10.20;8.00;;;6.70;89.20;;;;;;6223375;28;20100;-77
2021/04/18 05:23:22;;;;;;;8.18;6.90;;;6.70;89.20;;;;;;6223737;28;20512;-77
2021/04/18 05:26:23;;;;;;;10.73;6.55;;;6.70;89.20;;;;;;6222522;28;20136;-78
2021/04/18 05:29:25;;;;;;;11.73;8.25;;;6.70;89.10;;;;;;6226108;28;20046;-78
2021/04/18 05:32:26;;;;;;;11.10;8.43;;;6.80;89.00;;;;;;6231505;28;20109;-77
2021/04/18 05:35:27;;;;;;;9.82;8.38;;;6.90;89.00;;;;;;6231852;28;20050;-78
2021/04/18 05:38:29;;;;;;;12.38;7.43;;;6.90;88.80;;;;;;6254679;28;20053;-78
2021/04/18 05:41:31;;;;;;;8.75;7.55;;;7.00;88.30;;;;;;6256737;28;20455;-78
2021/04/18 05:44:32;;;;;;;9.68;6.43;;;7.00;87.80;;;;;;6254760;28;20042;-77
2021/04/18 05:47:34;;;;;;;8.25;7.07;;;7.20;87.40;;;;;;6254524;28;20091;-78
2021/04/18 05:50:35;;;;;;;9.95;7.25;;;7.30;87.10;;;;;;6252720;28;20567;-78
2021/04/18 05:53:37;;;;;;;12.80;8.57;;;7.40;86.60;;;;;;6250814;28;20268;-78
2021/04/18 05:56:39;;;;;;;9.15;7.75;;;7.50;86.40;;;;;;6248163;28;20073;-77
2021/04/18 05:59:40;;;;;;;13.77;11.25;;;7.60;85.60;;;;;;6247708;28;20105;-78
2021/04/18 06:02:41;;;;;;;10.57;8.68;;;7.70;85.20;;;;;;6247418;28;20144;-78
2021/04/18 06:05:43;;;;;;;12.52;9.80;;;7.80;84.60;;;;;;6239168;28;20042;-78
2021/04/18 06:08:45;;;;;;;9.80;8.35;;;7.80;84.30;;;;;;6248405;28;20048;-77
2021/04/18 06:11:46;;;;;;;10.60;7.85;;;7.90;84.10;;;;;;6250094;28;20069;-77
2021/04/18 06:14:47;;;;;;;15.00;10.07;;;7.90;83.70;;;;;;6250050;28;20133;-78
2021/04/18 06:17:49;;;;;;;21.42;16.13;;;8.00;83.40;;;;;;6249026;28;20091;-79
2021/04/18 06:20:50;;;;;;;9.70;7.15;;;8.00;82.90;;;;;;6251077;28;20577;-78
2021/04/18 06:23:52;;;;;;;9.65;8.10;;;8.00;82.30;;;;;;6250981;28;20554;-78
2021/04/18 06:26:54;;;;;;;9.27;8.20;;;8.00;81.70;;;;;;6247445;28;20076;-78
2021/04/18 06:29:55;;;;;;;11.27;7.82;;;8.10;83.30;;;;;;6247657;28;20121;-78
2021/04/18 06:32:56;;;;;;;9.65;7.53;;;8.20;81.90;;;;;;6253287;28;20049;-78
2021/04/18 06:35:58;;;;;;;9.30;7.45;;;8.30;81.30;;;;;;6245685;28;20129;-78
2021/04/18 06:39:00;;;;;;;7.88;6.70;;;8.30;80.80;;;;;;6230734;28;20073;-78
2021/04/18 06:42:03;;;;;;;12.32;7.22;;;8.40;79.90;;;;;;6251207;28;20077;-77
2021/04/18 06:45:07;;;;;;;10.77;8.02;;;8.50;79.90;;;;;;6252618;28;20058;-78
2021/04/18 06:48:13;;;;;;;9.23;8.27;;;8.60;79.60;;;;;;6252020;28;20065;-77
2021/04/18 06:51:16;;;;;;;10.57;7.22;;;8.80;78.30;;;;;;6251493;28;20518;-78
2021/04/18 06:54:18;;;;;;;11.98;8.85;;;8.90;77.30;;;;;;6251421;28;20726;-78
2021/04/18 06:57:20;;;;;;;13.82;8.02;;;9.10;76.60;;;;;;6251563;28;20112;-78
2021/04/18 07:00:22;;;;;;;9.13;7.22;;;9.40;75.50;;;;;;6252500;28;20133;-78
2021/04/18 07:03:24;;;;;;;8.73;7.78;;;9.50;74.10;;;;;;6252705;28;20145;-77
2021/04/18 07:06:37;;;;;;;10.07;7.13;;;9.50;73.10;;;;;;6251876;28;20049;-78
2021/04/18 07:09:46;;;;;;;9.35;7.72;;;9.70;74.70;;;;;;6252604;28;20087;-77
2021/04/18 07:12:47;;;;;;;6.50;5.75;;;10.10;71.70;;;;;;6254344;28;20057;-78
2021/04/18 07:15:49;;;;;;;8.98;7.05;;;10.40;70.70;;;;;;6258665;28;20045;-78
2021/04/18 07:18:51;;;;;;;8.57;6.72;;;10.50;67.80;;;;;;6257203;28;20045;-78
2021/04/18 07:21:55;;;;;;;11.25;8.13;;;10.40;67.30;;;;;;6256513;28;20049;-79
2021/04/18 07:24:59;;;;;;;8.18;6.65;;;10.50;67.00;;;;;;6255640;28;20467;-78
2021/04/18 07:28:00;;;;;;;11.73;6.85;;;10.90;65.90;;;;;;6257785;28;20041;-78
2021/04/18 07:31:02;;;;;;;10.43;7.97;;;11.00;64.90;;;;;;6258935;28;20080;-79
2021/04/18 07:34:06;;;;;;;6.80;6.15;;;11.10;64.30;;;;;;6257818;28;20049;-80
2021/04/18 07:37:10;;;;;;;10.93;7.32;;;11.30;63.60;;;;;;6251102;28;20064;-80
2021/04/18 07:40:12;;;;;;;9.63;6.03;;;11.30;62.40;;;;;;6234117;28;20098;-80
2021/04/18 07:43:14;;;;;;;8.27;6.72;;;11.40;62.50;;;;;;6231239;28;20132;-79
2021/04/18 07:46:18;;;;;;;7.07;6.22;;;11.70;62.00;;;;;;6232053;28;20049;-79
2021/04/18 07:49:20;;;;;;;10.20;6.32;;;12.00;60.20;;;;;;6233638;28;20042;-79
2021/04/18 07:52:25;;;;;;;7.65;5.50;;;11.80;60.00;;;;;;6232802;28;20467;-80
2021/04/18 07:55:27;;;;;;;7.28;6.28;;;11.70;60.60;;;;;;6233330;28;20054;-79
2021/04/18 07:58:29;;;;;;;7.13;5.65;;;12.00;60.30;;;;;;6232433;28;20046;-80
2021/04/18 08:01:30;;;;;;;10.18;5.90;;;12.30;59.10;;;;;;6233427;28;20176;-80
2021/04/18 08:04:32;;;;;;;9.38;6.10;;;12.40;57.60;;;;;;6236745;28;20076;-78
2021/04/18 08:07:53;;;;;;;9.23;6.47;;;12.30;58.70;;;;;;6231100;28;20068;-80
2021/04/18 08:11:09;;;;;;;7.13;5.60;;;12.40;58.40;;;;;;6230574;28;20096;-78
2021/04/18 08:14:17;;;;;;;7.20;6.45;;;12.30;56.60;;;;;;6229658;28;20125;-78
2021/04/18 08:17:19;;;;;;;10.00;6.05;;;12.10;56.80;;;;;;6230061;28;20069;-80
2021/04/18 08:20:30;;;;;;;15.00;7.85;;;12.10;57.50;;;;;;6228911;28;20068;-80
2021/04/18 08:23:37;;;;;;;12.75;10.68;;;12.30;57.00;;;;;;6229509;28;20480;-79
2021/04/18 08:26:39;;;;;;;11.57;7.05;;;12.40;56.30;;;;;;6229080;28;20502;-80
2021/04/18 08:29:58;;;;;;;10.82;7.00;;;12.50;56.00;;;;;;6230895;28;20116;-79
2021/04/18 08:33:00;;;;;;;9.27;7.07;;;12.50;55.40;;;;;;6264353;22;20144;-77
2021/04/18 08:36:11;;;;;;;8.80;6.50;;;12.60;55.20;;;;;;6247126;28;20092;-78
2021/04/18 08:39:20;;;;;;;9.35;7.30;;;12.70;54.60;;;;;;6244250;28;20109;-78
2021/04/18 08:42:30;;;;;;;9.70;6.38;;;12.60;55.10;;;;;;6247324;28;20052;-78
2021/04/18 08:45:47;;;;;;;14.02;6.65;;;12.80;55.30;;;;;;6248017;28;20049;-78
2021/04/18 08:48:48;;;;;;;7.03;5.90;;;12.80;54.10;;;;;;6246575;28;20057;-78
2021/04/18 08:51:52;;;;;;;8.20;6.38;;;12.80;54.00;;;;;;6247599;28;20116;-78
2021/04/18 08:54:57;;;;;;;11.10;6.53;;;12.50;53.60;;;;;;6246796;28;20072;-78
2021/04/18 08:57:59;;;;;;;6.95;6.25;;;12.30;55.10;;;;;;6246504;28;20041;-78
2021/04/18 09:01:08;;;;;;;7.13;5.68;;;12.20;54.70;;;;;;6247680;28;20132;-78
2021/04/18 09:04:16;;;;;;;10.77;7.28;;;12.10;55.60;;;;;;6246927;28;20577;-79
2021/04/18 09:07:19;;;;;;;7.88;6.47;;;12.10;55.00;;;;;;6248557;28;20072;-78
2021/04/18 09:10:21;;;;;;;13.50;6.30;;;11.80;56.10;;;;;;6252903;28;20049;-78
2021/04/18 09:13:23;;;;;;;7.93;7.03;;;11.60;55.80;;;;;;6250373;28;20053;-78
2021/04/18 09:16:30;;;;;;;7.50;6.15;;;11.60;56.60;;;;;;6247668;28;20525;-78
2021/04/18 09:19:32;;;;;;;9.03;6.73;;;11.60;56.70;;;;;;6247239;28;20399;-78
2021/04/18 09:22:38;;;;;;;5.68;5.18;;;11.80;56.50;;;;;;6251197;28;20053;-78
2021/04/18 09:25:40;;;;;;;7.05;5.82;;;11.80;55.90;;;;;;6246307;28;20053;-77
2021/04/18 09:29:09;;;;;;;6.97;6.15;;;11.70;56.30;;;;;;6246450;28;20037;-79
2021/04/18 09:32:16;;;;;;;;;;;11.90;56.30;;;;;;6250089;28;20045;-78
2021/04/18 09:35:20;;;;;;;9.48;5.70;;;11.90;56.40;;;;;;6248560;28;19928;-79
2021/04/18 09:38:25;;;;;;;9.50;6.25;;;12.10;56.80;;;;;;6244604;28;20069;-78
2021/04/18 09:41:27;;;;;;;9.50;5.97;;;12.30;56.20;;;;;;6242885;28;20064;-77
2021/04/18 09:44:46;;;;;;;10.45;6.63;;;12.50;56.00;;;;;;6248687;28;20083;-78
2021/04/18 09:47:56;;;;;;;7.78;4.80;;;12.70;55.20;;;;;;6252306;28;20400;-78
2021/04/18 09:51:04;;;;;;;14.00;6.30;;;12.70;55.30;;;;;;6251839;28;20048;-78
2021/04/18 09:54:06;;;;;;;12.48;6.15;;;12.80;58.10;;;;;;6248750;28;20155;-79
2021/04/18 09:57:26;;;;;;;8.27;6.53;;;13.00;55.40;;;;;;6246695;28;20360;-79
2021/04/18 10:00:36;;;;;;;10.63;8.10;;;13.00;54.50;;;;;;6250679;28;20127;-79
2021/04/18 10:03:39;;;;;;;8.43;6.32;;;13.10;54.20;;;;;;6250299;28;20125;-79
2021/04/18 10:06:48;;;;;;;7.28;5.95;;;13.30;55.10;;;;;;6251294;28;20146;-78
2021/04/18 10:09:54;;;;;;;8.18;4.80;;;13.50;53.90;;;;;;6249313;28;20128;-78
2021/04/18 10:12:56;;;;;;;8.27;6.85;;;13.60;53.60;;;;;;6251911;28;20049;-79
2021/04/18 10:15:58;;;;;;;12.43;7.03;;;13.60;54.50;;;;;;6252110;28;20049;-78
2021/04/18 10:19:11;;;;;;;10.40;6.82;;;13.70;53.10;;;;;;6247186;28;20046;-80
2021/04/18 10:22:19;;;;;;;6.15;5.55;;;13.40;52.80;;;;;;6247129;28;20586;-79
2021/04/18 10:25:21;;;;;;;10.15;5.85;;;13.10;53.10;;;;;;6255595;28;20064;-79
2021/04/18 10:28:22;;;;;;;10.63;6.75;;;12.90;54.30;;;;;;6253522;28;20049;-78
2021/04/18 10:31:26;;;;;;;16.23;6.43;;;12.80;54.30;;;;;;6234145;28;20103;-78
2021/04/18 10:34:27;;;;;;;9.77;6.50;;;12.70;58.30;;;;;;6237077;28;20084;-78
2021/04/18 10:37:29;;;;;;;8.02;5.57;;;13.10;59.00;;;;;;6241465;28;20057;-79
2021/04/18 10:40:39;;;;;;;10.25;6.03;;;13.50;56.10;;;;;;6242805;28;20091;-80
2021/04/18 10:43:47;;;;;;;10.93;6.88;;;13.60;54.00;;;;;;6246179;28;20057;-79
2021/04/18 10:46:52;;;;;;;7.88;6.03;;;13.50;53.00;;;;;;6239665;28;20126;-80
2021/04/18 10:50:04;;;;;;;8.82;7.22;;;13.10;55.80;;;;;;6242306;28;20052;-79
2021/04/18 10:53:18;;;;;;;12.35;6.90;;;13.10;54.10;;;;;;6244361;28;20049;-80
2021/04/18 10:56:38;;;;;;;11.07;6.70;;;13.00;54.10;;;;;;6250673;28;20683;-80
2021/04/18 10:59:46;;;;;;;8.68;6.68;;;12.80;54.50;;;;;;6260821;28;20056;-81
2021/04/18 11:02:57;;;;;;;;;;;12.60;55.10;;;;;;6254599;28;20595;-78
2021/04/18 11:06:17;;;;;;;8.23;6.97;;;12.60;55.40;;;;;;6270918;28;19948;-80
2021/04/18 11:09:31;;;;;;;7.47;6.72;;;12.60;55.30;;;;;;6250596;28;20041;-77
2021/04/18 11:12:38;;;;;;;10.68;7.03;;;12.50;55.00;;;;;;6240062;28;20057;-79
2021/04/18 11:15:40;;;;;;;10.25;6.50;;;12.50;55.60;;;;;;6261361;28;20136;-78
2021/04/18 11:18:42;;;;;;;10.55;6.82;;;12.20;55.50;;;;;;6265343;28;20129;-79
2021/04/18 11:21:43;;;;;;;8.93;5.68;;;12.10;58.20;;;;;;6258692;28;20050;-79
2021/04/18 11:24:44;;;;;;;12.10;7.05;;;12.40;59.80;;;;;;6259889;28;20099;-80
2021/04/18 11:27:47;;;;;;;117.10;104.40;;;12.70;58.10;;;;;;6251791;28;20049;-79
2021/04/18 11:30:48;;;;;;;43.53;35.80;;;12.30;60.50;;;;;;6258863;28;20132;-79
2021/04/18 11:33:51;;;;;;;12.32;9.25;;;11.60;63.50;;;;;;6259909;28;20049;-79
2021/04/18 11:36:52;;;;;;;12.30;8.05;;;11.20;65.70;;;;;;6261560;28;20077;-80
2021/04/18 11:39:54;;;;;;;11.52;6.95;;;10.90;66.30;;;;;;6257839;28;20179;-78
2021/04/18 11:42:55;;;;;;;11.82;7.47;;;10.80;67.60;;;;;;6256403;28;20596;-80
2021/04/18 11:45:56;;;;;;;10.77;7.90;;;10.70;69.10;;;;;;6258962;28;20089;-79
2021/04/18 11:48:59;;;;;;;8.60;7.03;;;10.70;70.90;;;;;;6260959;28;20037;-80
2021/04/18 11:52:00;;;;;;;10.15;7.10;;;10.70;71.50;;;;;;6259061;28;20080;-79
2021/04/18 11:55:01;;;;;;;13.30;8.05;;;10.70;71.40;;;;;;6260306;28;20104;-79
2021/04/18 11:58:03;;;;;;;12.88;8.07;;;10.80;71.10;;;;;;6257488;28;20093;-79
2021/04/18 12:01:05;;;;;;;14.45;9.05;;;10.90;71.20;;;;;;6255140;28;20041;-80
2021/04/18 12:04:07;;;;;;;14.57;7.60;;;11.00;69.80;;;;;;6257725;28;20041;-79
2021/04/18 12:07:09;;;;;;;10.23;7.32;;;11.00;68.00;;;;;;6255266;28;20363;-79
2021/04/18 12:10:13;;;;;;;10.73;8.30;;;11.10;66.20;;;;;;6253885;28;20180;-79
2021/04/18 12:13:14;;;;;;;12.10;8.27;;;11.30;65.90;;;;;;6252891;28;20438;-79
2021/04/18 12:16:16;;;;;;;7.90;6.85;;;11.60;66.00;;;;;;6250956;28;20410;-79
2021/04/18 12:19:18;;;;;;;11.32;7.32;;;11.90;67.10;;;;;;6250218;28;20139;-78
2021/04/18 12:22:20;;;;;;;7.55;6.15;;;12.20;62.90;;;;;;6250214;28;20562;-79
2021/04/18 12:25:21;;;;;;;8.95;6.65;;;12.30;62.70;;;;;;6250007;28;20060;-80
2021/04/18 12:28:22;;;;;;;11.60;8.80;;;12.50;62.10;;;;;;6249634;28;20105;-79
2021/04/18 12:31:24;;;;;;;13.15;8.73;;;12.70;60.70;;;;;;6249688;28;20417;-78
2021/04/18 12:34:26;;;;;;;10.73;8.88;;;12.80;59.50;;;;;;6250392;28;20045;-79
2021/04/18 12:37:27;;;;;;;10.52;8.23;;;12.90;60.00;;;;;;6250590;28;20052;-79
2021/04/18 12:40:29;;;;;;;17.58;11.32;;;13.10;58.80;;;;;;6244518;28;20411;-79
2021/04/18 12:43:30;;;;;;;21.33;11.50;;;13.10;57.00;;;;;;6236154;28;20798;-79
2021/04/18 12:46:32;;;;;;;14.30;10.60;;;13.00;57.60;;;;;;6225251;28;20117;-80
2021/04/18 12:49:34;;;;;;;16.10;10.68;;;13.10;57.60;;;;;;6227847;28;20478;-79
2021/04/18 12:52:35;;;;;;;17.80;10.43;;;13.30;57.50;;;;;;6226946;28;20125;-80
2021/04/18 12:55:37;;;;;;;12.18;9.52;;;13.70;57.10;;;;;;6226422;28;20061;-78
2021/04/18 12:58:40;;;;;;;17.35;11.20;;;14.10;55.70;;;;;;6225746;28;20050;-79
2021/04/18 13:01:41;;;;;;;15.93;10.93;;;14.50;55.10;;;;;;6228169;28;20423;-79
2021/04/18 13:04:43;;;;;;;14.93;9.38;;;14.70;54.00;;;;;;6227721;28;20088;-79
2021/04/18 13:07:46;;;;;;;14.25;9.70;;;14.70;53.30;;;;;;6226030;28;20101;-78
2021/04/18 13:10:47;;;;;;;15.35;11.30;;;14.70;53.50;;;;;;6227076;28;20420;-79
2021/04/18 13:13:48;;;;;;;10.98;8.32;;;14.50;53.10;;;;;;6226768;28;20138;-79
2021/04/18 13:16:50;;;;;;;12.82;8.77;;;14.10;54.30;;;;;;6225347;28;20056;-78
2021/04/18 13:19:52;;;;;;;10.63;8.73;;;13.90;54.30;;;;;;6226430;28;20507;-78
2021/04/18 13:22:53;;;;;;;11.60;8.27;;;13.80;54.40;;;;;;6227102;28;20081;-79
2021/04/18 13:25:55;;;;;;;13.02;9.23;;;13.90;55.10;;;;;;6224338;28;20099;-79
2021/04/18 13:28:57;;;;;;;14.23;10.38;;;13.90;54.80;;;;;;6223229;28;20556;-79
2021/04/18 13:31:58;;;;;;;13.88;11.00;;;13.90;54.30;;;;;;6224046;28;20048;-79
2021/04/18 13:35:00;;;;;;;10.48;8.55;;;13.80;54.10;;;;;;6223813;28;20137;-79
2021/04/18 13:38:02;;;;;;;12.75;9.38;;;13.50;55.30;;;;;;6224029;28;20046;-79
2021/04/18 13:41:03;;;;;;;11.13;8.32;;;13.50;55.10;;;;;;6221801;28;20088;-81
2021/04/18 13:44:05;;;;;;;10.73;8.88;;;13.50;55.10;;;;;;6243923;28;20045;-79
2021/04/18 13:47:07;;;;;;;12.15;7.97;;;13.60;54.50;;;;;;6247586;28;20140;-79
2021/04/18 13:50:11;;;;;;;13.15;9.38;;;13.70;54.00;;;;;;6254764;28;20049;-79
2021/04/18 13:53:14;;;;;;;19.48;9.15;;;13.60;55.00;;;;;;6260849;28;20045;-79
2021/04/18 13:56:15;;;;;;;18.25;8.48;;;13.60;55.00;;;;;;6253586;28;20555;-79
2021/04/18 13:59:16;;;;;;;11.50;7.95;;;13.90;56.80;;;;;;6252628;28;20049;-80
2021/04/18 14:02:18;;;;;;;11.93;9.00;;;14.00;56.40;;;;;;6253937;28;20133;-79
2021/04/18 14:05:20;;;;;;;13.13;8.65;;;14.50;54.30;;;;;;6255255;28;20049;-78
2021/04/18 14:08:22;;;;;;;15.10;9.43;;;14.60;53.20;;;;;;6254758;28;20129;-79
2021/04/18 14:11:24;;;;;;;15.50;9.25;;;14.80;53.30;;;;;;6257898;28;20072;-79
2021/04/18 14:14:26;;;;;;;10.02;7.90;;;14.80;52.50;;;;;;6239988;28;20157;-80
2021/04/18 14:17:27;;;;;;;18.80;14.32;;;14.60;53.80;;;;;;6229884;28;20108;-79
2021/04/18 14:20:29;;;;;;;14.65;10.90;;;14.60;53.40;;;;;;6230551;28;20069;-80
2021/04/18 14:23:32;;;;;;;13.05;10.02;;;14.80;53.00;;;;;;6231614;28;20054;-79
2021/04/18 14:26:34;;;;;;;14.73;10.80;;;14.90;53.30;;;;;;6239068;28;20050;-79
2021/04/18 14:29:35;;;;;;;14.05;11.00;;;15.00;51.90;;;;;;6240468;28;20070;-79
2021/04/18 14:32:36;;;;;;;12.65;10.05;;;15.20;52.20;;;;;;6270522;22;20121;-78
2021/04/18 14:35:39;;;;;;;12.95;10.43;;;15.20;51.90;;;;;;6269751;28;20049;-78
2021/04/18 14:38:40;;;;;;;16.10;11.57;;;15.20;51.70;;;;;;6257140;28;20049;-76
2021/04/18 14:41:42;;;;;;;13.68;10.55;;;15.20;51.90;;;;;;6257393;28;20092;-78
2021/04/18 14:44:43;;;;;;;20.60;10.93;;;15.10;52.20;;;;;;6243566;28;20080;-79
2021/04/18 14:47:44;;;;;;;13.38;11.20;;;15.20;52.30;;;;;;6230289;28;20096;-80
2021/04/18 14:50:46;;;;;;;15.18;9.75;;;15.40;51.90;;;;;;6231146;28;20495;-78
2021/04/18 14:53:48;;;;;;;13.77;11.02;;;15.50;51.60;;;;;;6229467;28;20108;-79
2021/04/18 14:56:50;;;;;;;15.32;10.80;;;15.50;51.40;;;;;;6230110;28;20050;-77
2021/04/18 14:59:51;;;;;;;13.40;10.98;;;15.40;51.30;;;;;;6230383;28;20042;-80
2021/04/18 15:02:53;;;;;;;17.15;11.95;;;15.50;51.00;;;;;;6228790;28;20128;-79
2021/04/18 15:05:55;;;;;;;14.57;11.55;;;15.70;51.00;;;;;;6229460;28;20123;-78
2021/04/18 15:08:56;;;;;;;15.65;10.57;;;15.80;50.40;;;;;;6229656;28;20070;-78
2021/04/18 15:11:58;;;;;;;13.73;11.25;;;15.90;51.00;;;;;;6230292;28;20045;-80
2021/04/18 15:14:59;;;;;;;14.38;10.35;;;15.90;50.00;;;;;;6252750;28;20426;-80
2021/04/18 15:18:00;;;;;;;15.50;12.02;;;16.00;50.40;;;;;;6255797;28;20558;-80
2021/04/18 15:21:03;;;;;;;14.27;9.98;;;16.20;49.90;;;;;;6267625;28;20069;-80
2021/04/18 15:24:06;;;;;;;18.92;11.05;;;16.20;49.60;;;;;;6255087;28;20049;-81
2021/04/18 15:27:07;;;;;;;14.93;11.55;;;16.30;49.40;;;;;;6258093;28;20053;-78
2021/04/18 15:30:10;;;;;;;20.17;13.35;;;16.10;49.10;;;;;;6254466;28;20140;-81
2021/04/18 15:33:12;;;;;;;20.40;16.10;;;16.00;49.40;;;;;;6254892;28;20136;-81
2021/04/18 15:36:14;;;;;;;56.85;38.45;;;15.80;49.50;;;;;;6257209;28;20041;-79
2021/04/18 15:39:16;;;;;;;51.17;40.33;;;15.70;50.20;;;;;;6254577;28;20045;-79
2021/04/18 15:42:18;;;;;;;19.23;14.60;;;15.60;51.10;;;;;;6255231;28;20049;-78
2021/04/18 15:45:19;;;;;;;16.73;14.27;;;15.30;50.50;;;;;;6247790;28;20120;-78
2021/04/18 15:48:21;;;;;;;16.80;13.88;;;15.10;51.50;;;;;;6253539;28;20045;-78
2021/04/18 15:51:24;;;;;;;17.02;13.45;;;;;;;;;;6254629;28;20045;-78